Detall de PIREP

Printer-friendly versionPDF version

[2011/07/03 17:52:00]
Flight IATA:CT3240
Pilot Number:037
Company ICAO:CAT
Aircraft Type:B763/F
PAX:191
Departing Airport: LEPA
Destination Airport: LIRF
Alternate Airport:LIRN
Online: VATSIM
Route:MORSS UM603 ALG UL5 VALMA
Flight Level:F340
No Slew and time accel
No pause
Crash detect
Detect pilot in Cockpit between each 30 and 45 minutes
17:52 Zero fuel Weight: 242561 Lbs, Fuel Weight: 35970 Lbs
17:52 VATSIM:LEPA 031730Z 09005KT 060V120 9999 FEW012 29/19 Q1009 NOSIG
17:52 VATSIM:LIRF 031720Z 27010KT CAVOK 24/20 Q1011 NOSIG
18:03 Take-off
18:03 Take off Weight: 276607 Lbs
18:03 Wind: 095º @ 005 Knots Heading: 237º
18:03 POS N39º 33´ 16´´ E002º 43´ 35´´
18:03 Gear Up: 162 Knots
18:03 Flaps:3 at 162 Knots
18:04 Flaps:2 at 146 Knots
18:05 Flaps:1 at 239 Knots
18:05 Flaps:0 at 240 Knots
18:18 Wind:129º@039 Knots Heading: 063º Ground Speed: 472 Knots Altitude 33615ft
18:18 TOC
18:18 Fuel Weight: 28158 Lb
18:33 Wind:146º@013 Knots Heading: 077º Ground Speed: 478 Knots Altitude 33910 ft
18:48 Wind:112º@004 Knots Heading: 068º Ground Speed: 493 Knots Altitude 33966 ft
18:58 TOD
18:58 Fuel Weight: 21537 Lb
19:03 Wind:269º@016 Knots Heading: 068º Ground Speed: 387 Knots Altitude 23418 ft
19:14 Flaps:1 at 204 Knots
19:14 Flaps:2 at 189 Knots
19:16 Flaps:3 at 201 Knots
19:16 Gear Down: 156 Knots
19:16 Flaps:4 at 156 Knots
19:17 Flaps:5 at 155 Knots
19:17 Flaps:6 at 152 Knots
19:18 Wind:276º@006 Knots Heading: 163º Ground Speed: 144 Knots Altitude 879 ft
19:18 TouchDown:Rate -233 ft/min Speed: 118 Knots
19:19 VATSIM:LIRF 031850Z 28006KT 9999 FEW020 23/20 Q1011 NOSIG
19:19 Land
19:19 Wind:276º@006 Knots
19:19 Heading: 163º
19:19 Flight Duration: 01:16
19:19 Landing Weight: 262142 Lbs
19:19 POS N41º 48´ 08´´ E012º 13´ 54´´
19:28 Parking brakes on
19:28 Block to Block Duration: 01:25
19:28 Final Fuel: 18406 Lbls
19:28 Spent Fuel: 17563 Lbls
19:28 Flight Length: 396 NM
19:28 TOD Land Length: 115 NM

Exportar CSV

Powered by Drupal - Modified by Danger4k